createdAt,value
2023-02-19T00:01:54.639Z,5.22
2023-02-19T00:04:23.836Z,5.93
2023-02-19T00:06:52.428Z,5.53
2023-02-19T00:09:22.805Z,6.07
2023-02-19T00:11:51.400Z,4.82
2023-02-19T00:14:21.902Z,4.80
2023-02-19T00:16:50.973Z,4.72
2023-02-19T00:19:20.970Z,6.35
2023-02-19T00:21:51.980Z,6.38
2023-02-19T00:24:22.081Z,5.65
2023-02-19T00:26:50.556Z,4.75
2023-02-19T00:29:21.305Z,7.50
2023-02-19T00:31:50.025Z,7.97
2023-02-19T00:34:18.489Z,4.68
2023-02-19T00:36:47.089Z,6.90
2023-02-19T00:39:18.838Z,6.38
2023-02-19T00:41:48.898Z,7.78
2023-02-19T00:44:17.978Z,7.65
2023-02-19T00:46:49.820Z,8.93
2023-02-19T00:49:22.250Z,7.75
2023-02-19T00:51:52.272Z,10.55
2023-02-19T00:54:22.813Z,6.90
2023-02-19T00:56:52.631Z,8.30
2023-02-19T00:59:20.770Z,10.52
2023-02-19T01:01:49.931Z,11.25
2023-02-19T01:04:19.561Z,8.80
2023-02-19T01:06:48.942Z,10.60
2023-02-19T01:09:17.033Z,10.90
2023-02-19T01:11:45.489Z,6.28
2023-02-19T01:14:15.257Z,6.60
2023-02-19T01:16:43.566Z,8.88
2023-02-19T01:19:12.390Z,14.35
2023-02-19T01:21:41.674Z,8.35
2023-02-19T01:24:11.399Z,8.27
2023-02-19T01:26:40.925Z,10.55
2023-02-19T01:29:10.352Z,11.55
2023-02-19T01:31:42.160Z,8.32
2023-02-19T01:34:12.501Z,9.48
2023-02-19T01:36:41.413Z,7.22
2023-02-19T01:39:10.522Z,7.10
2023-02-19T01:41:41.635Z,8.23
2023-02-19T01:44:48.838Z,7.13
2023-02-19T01:47:21.426Z,7.07
2023-02-19T01:49:54.181Z,6.35
2023-02-19T01:52:27.230Z,11.70
2023-02-19T01:54:56.876Z,7.57
2023-02-19T01:57:28.049Z,7.25
2023-02-19T02:00:00.715Z,7.10
2023-02-19T02:02:31.080Z,9.85
2023-02-19T02:05:01.391Z,8.55
2023-02-19T02:07:47.649Z,10.82
2023-02-19T02:10:22.366Z,9.00
2023-02-19T02:12:52.411Z,8.75
2023-02-19T02:15:22.655Z,13.63
2023-02-19T02:17:58.977Z,6.35
2023-02-19T02:21:00.486Z,7.38
2023-02-19T02:23:41.707Z,6.55
2023-02-19T02:26:32.061Z,6.82
2023-02-19T02:29:23.209Z,7.57
2023-02-19T02:31:58.356Z,10.70
2023-02-19T02:34:36.164Z,5.95
2023-02-19T02:37:05.755Z,7.22
2023-02-19T02:39:34.436Z,8.65
2023-02-19T02:42:16.922Z,6.07
2023-02-19T02:45:06.353Z,10.13
2023-02-19T02:47:43.263Z,7.95
2023-02-19T02:50:16.769Z,8.73
2023-02-19T02:53:04.740Z,7.57
2023-02-19T02:55:40.020Z,4.18
2023-02-19T02:58:09.244Z,7.03
2023-02-19T03:00:52.993Z,5.70
2023-02-19T03:03:26.637Z,7.28
2023-02-19T03:06:02.969Z,7.55
2023-02-19T03:08:35.859Z,6.32
2023-02-19T03:11:20.873Z,10.70
2023-02-19T03:14:09.636Z,6.05
2023-02-19T03:16:58.655Z,6.13
2023-02-19T03:19:30.171Z,4.78
2023-02-19T03:22:03.261Z,5.57
2023-02-19T03:24:54.129Z,7.53
2023-02-19T03:27:24.826Z,6.07
2023-02-19T03:29:58.216Z,6.80
2023-02-19T03:32:31.526Z,5.45
2023-02-19T03:35:06.500Z,5.97
2023-02-19T03:37:43.012Z,4.45
2023-02-19T03:40:12.168Z,4.40
2023-02-19T03:42:48.843Z,4.28
2023-02-19T03:45:35.090Z,3.95
2023-02-19T03:48:14.149Z,3.70
2023-02-19T03:50:50.097Z,4.57
2023-02-19T03:53:28.348Z,3.47
2023-02-19T03:56:09.461Z,2.45
2023-02-19T03:58:53.329Z,4.70
2023-02-19T04:01:29.458Z,3.05
2023-02-19T04:04:02.821Z,2.67
2023-02-19T04:06:35.066Z,2.53
2023-02-19T04:09:07.826Z,3.53
2023-02-19T04:11:38.103Z,3.70
2023-02-19T04:14:12.384Z,2.45
2023-02-19T04:16:45.360Z,4.47
2023-02-19T04:19:17.691Z,3.10
2023-02-19T04:21:48.447Z,5.75
2023-02-19T04:24:23.271Z,4.10
2023-02-19T04:26:51.526Z,3.90
2023-02-19T04:29:19.970Z,3.50
2023-02-19T04:31:48.390Z,3.30
2023-02-19T04:34:16.543Z,3.53
2023-02-19T04:36:44.693Z,2.97
2023-02-19T04:39:14.230Z,4.20
2023-02-19T04:41:43.022Z,7.68
2023-02-19T04:44:10.873Z,3.42
2023-02-19T04:46:39.967Z,4.18
2023-02-19T04:49:10.093Z,3.38
2023-02-19T04:51:38.163Z,5.15
2023-02-19T04:54:07.113Z,4.20
2023-02-19T04:56:36.829Z,3.03
2023-02-19T04:59:05.468Z,4.10
2023-02-19T05:01:33.584Z,3.33
2023-02-19T05:04:01.839Z,2.30
2023-02-19T05:06:30.009Z,4.30
2023-02-19T05:08:58.356Z,3.55
2023-02-19T05:11:26.883Z,4.78
2023-02-19T05:13:57.822Z,5.00
2023-02-19T05:16:26.662Z,3.97
2023-02-19T05:18:55.207Z,4.57
2023-02-19T05:21:23.514Z,2.78
2023-02-19T05:23:51.349Z,3.60
2023-02-19T05:26:22.320Z,2.50
2023-02-19T05:28:52.676Z,3.83
2023-02-19T05:31:22.879Z,3.17
2023-02-19T05:33:53.184Z,4.53
2023-02-19T05:36:22.510Z,3.58
2023-02-19T05:38:54.448Z,3.78
2023-02-19T05:41:24.243Z,2.55
2023-02-19T05:43:53.003Z,1.70
2023-02-19T05:46:24.971Z,2.58
2023-02-19T05:48:55.010Z,2.92
2023-02-19T05:51:25.689Z,2.30
2023-02-19T05:53:54.446Z,2.45
2023-02-19T05:56:28.967Z,2.22
2023-02-19T05:58:57.335Z,1.45
2023-02-19T06:01:29.403Z,4.15
2023-02-19T06:03:58.049Z,1.77
2023-02-19T06:06:27.255Z,1.20
2023-02-19T06:08:56.148Z,1.85
2023-02-19T06:11:25.275Z,2.13
2023-02-19T06:13:53.893Z,1.50
2023-02-19T06:16:22.065Z,1.48
2023-02-19T06:18:52.025Z,2.22
2023-02-19T06:21:20.893Z,2.03
2023-02-19T06:23:49.063Z,1.65
2023-02-19T06:26:19.987Z,1.50
2023-02-19T06:28:49.601Z,1.65
2023-02-19T06:31:18.689Z,1.60
2023-02-19T06:33:47.340Z,1.73
2023-02-19T06:36:18.445Z,1.50
2023-02-19T06:38:47.065Z,2.20
2023-02-19T06:41:16.331Z,1.30
2023-02-19T06:43:44.757Z,1.50
2023-02-19T06:46:14.310Z,2.15
2023-02-19T06:48:43.756Z,2.10
2023-02-19T06:51:13.729Z,1.98
2023-02-19T06:53:43.706Z,1.55
2023-02-19T06:56:24.708Z,1.85
2023-02-19T06:58:53.614Z,1.60
2023-02-19T07:01:22.357Z,2.33
2023-02-19T07:03:51.230Z,1.50
2023-02-19T07:06:19.799Z,1.30
2023-02-19T07:08:49.294Z,1.75
2023-02-19T07:11:18.741Z,1.52
2023-02-19T07:13:46.884Z,1.88
2023-02-19T07:16:15.718Z,1.92
2023-02-19T07:18:43.876Z,1.75
2023-02-19T07:21:13.984Z,1.98
2023-02-19T07:23:43.142Z,2.33
2023-02-19T07:26:15.980Z,1.80
2023-02-19T07:28:45.636Z,3.63
2023-02-19T07:31:14.366Z,3.13
2023-02-19T07:33:44.434Z,5.05
2023-02-19T07:36:13.298Z,1.83
2023-02-19T07:38:41.365Z,1.88
2023-02-19T07:41:10.070Z,2.58
2023-02-19T07:43:40.780Z,2.13
2023-02-19T07:46:10.939Z,2.47
2023-02-19T07:48:40.807Z,2.15
2023-02-19T07:51:12.085Z,2.25
2023-02-19T07:53:40.640Z,3.75
2023-02-19T07:56:09.284Z,2.60
2023-02-19T07:58:37.575Z,3.42
2023-02-19T08:01:14.968Z,6.22
2023-02-19T08:03:42.930Z,4.13
2023-02-19T08:06:12.188Z,3.95
2023-02-19T08:08:40.563Z,4.07
2023-02-19T08:11:26.921Z,2.25
2023-02-19T08:13:54.947Z,2.45
2023-02-19T08:16:40.862Z,2.85
2023-02-19T08:19:10.622Z,5.05
2023-02-19T08:21:38.683Z,7.95
2023-02-19T08:24:07.178Z,3.85
2023-02-19T08:26:35.652Z,7.38
2023-02-19T08:29:04.185Z,6.13
2023-02-19T08:31:34.330Z,3.85
2023-02-19T08:34:02.893Z,3.97
2023-02-19T08:36:31.318Z,6.80
2023-02-19T08:38:59.284Z,4.65
2023-02-19T08:41:27.481Z,3.08
2023-02-19T08:43:55.446Z,4.22
2023-02-19T08:46:23.752Z,3.95
2023-02-19T08:48:53.468Z,4.63
2023-02-19T08:51:21.504Z,4.53
2023-02-19T08:53:49.693Z,7.03
2023-02-19T08:56:18.658Z,3.40
2023-02-19T08:58:46.886Z,6.15
2023-02-19T09:01:16.731Z,4.15
2023-02-19T09:03:45.501Z,2.83
2023-02-19T09:06:18.057Z,2.88
2023-02-19T09:08:46.136Z,2.70
2023-02-19T09:11:15.235Z,2.58
2023-02-19T09:13:43.543Z,2.80
2023-02-19T09:16:12.519Z,2.90
2023-02-19T09:18:40.918Z,2.70
2023-02-19T09:21:09.346Z,4.55
2023-02-19T09:23:39.429Z,2.75
2023-02-19T09:26:10.143Z,3.03
2023-02-19T09:28:41.709Z,3.05
2023-02-19T09:31:12.878Z,3.00
2023-02-19T09:33:43.692Z,2.80
2023-02-19T09:36:12.198Z,2.20
2023-02-19T09:38:41.818Z,2.50
2023-02-19T09:41:16.658Z,2.15
2023-02-19T09:43:45.505Z,1.90
2023-02-19T09:46:25.252Z,1.90
2023-02-19T09:48:55.730Z,1.92
2023-02-19T09:51:25.939Z,2.05
2023-02-19T09:53:57.540Z,3.83
2023-02-19T09:56:27.141Z,3.85
2023-02-19T09:58:58.736Z,2.95
2023-02-19T10:01:32.244Z,3.40
2023-02-19T10:04:00.350Z,2.40
2023-02-19T10:06:29.969Z,2.70
2023-02-19T10:09:12.805Z,2.20
2023-02-19T10:11:41.398Z,2.97
2023-02-19T10:14:16.518Z,2.90
2023-02-19T10:16:47.115Z,3.05
2023-02-19T10:19:15.985Z,4.72
2023-02-19T10:21:44.377Z,3.53
2023-02-19T10:24:21.399Z,3.85
2023-02-19T10:31:20.547Z,4.75
2023-02-19T10:33:51.576Z,4.95
2023-02-19T10:36:29.878Z,6.82
2023-02-19T10:39:00.599Z,2.72
2023-02-19T10:41:32.030Z,3.10
2023-02-19T10:44:06.649Z,9.38
2023-02-19T10:46:38.782Z,5.72
2023-02-19T10:49:19.919Z,3.55
2023-02-19T10:51:49.147Z,3.83
2023-02-19T10:54:20.407Z,3.13
2023-02-19T10:56:50.178Z,2.10
2023-02-19T10:59:25.705Z,3.65
2023-02-19T11:01:58.940Z,2.50
2023-02-19T11:04:29.348Z,2.92
2023-02-19T11:06:58.534Z,3.00
2023-02-19T11:09:30.918Z,2.47
2023-02-19T11:12:01.773Z,2.85
2023-02-19T11:14:31.789Z,4.72
2023-02-19T11:17:04.325Z,5.40
2023-02-19T11:19:38.097Z,3.33
2023-02-19T11:22:21.415Z,3.08
2023-02-19T11:24:53.052Z,2.33
2023-02-19T11:27:26.870Z,3.22
2023-02-19T11:29:55.275Z,4.60
2023-02-19T11:32:30.126Z,4.10
2023-02-19T11:35:19.522Z,3.55
2023-02-19T11:37:59.731Z,1.70
2023-02-19T11:40:42.170Z,2.35
2023-02-19T11:43:31.739Z,3.85
2023-02-19T11:46:09.917Z,3.55
2023-02-19T11:48:50.144Z,2.35
2023-02-19T11:51:46.126Z,2.55
2023-02-19T11:54:32.111Z,4.78
2023-02-19T11:57:10.240Z,3.08
2023-02-19T11:59:49.363Z,2.60
2023-02-19T12:02:40.871Z,3.35
2023-02-19T12:05:29.742Z,2.67
2023-02-19T12:08:14.545Z,3.70
2023-02-19T12:10:58.341Z,3.00
2023-02-19T12:13:40.633Z,2.42
2023-02-19T12:16:20.897Z,2.08
2023-02-19T12:19:05.083Z,3.33
2023-02-19T12:21:47.789Z,2.35
2023-02-19T12:25:01.256Z,3.35
2023-02-19T12:27:45.493Z,2.03
2023-02-19T12:30:28.183Z,3.10
2023-02-19T12:33:19.173Z,4.20
2023-02-19T12:36:04.463Z,2.83
2023-02-19T12:38:35.194Z,2.22
2023-02-19T12:41:16.732Z,4.43
2023-02-19T12:43:53.204Z,2.72
2023-02-19T12:46:27.359Z,3.90
2023-02-19T12:49:02.867Z,2.70
2023-02-19T12:51:40.710Z,2.17
2023-02-19T12:54:16.061Z,4.05
2023-02-19T12:56:50.261Z,2.65
2023-02-19T12:59:26.000Z,4.68
2023-02-19T13:01:59.399Z,3.55
2023-02-19T13:04:35.744Z,2.53
2023-02-19T13:07:10.692Z,3.42
2023-02-19T13:09:43.767Z,4.15
2023-02-19T13:12:17.372Z,2.40
2023-02-19T13:14:49.955Z,4.85
2023-02-19T13:17:24.881Z,1.60
2023-02-19T13:19:59.724Z,2.75
2023-02-19T13:22:52.856Z,2.33
2023-02-19T13:25:23.617Z,2.30
2023-02-19T13:28:14.808Z,3.17
2023-02-19T13:30:59.249Z,10.15
2023-02-19T13:33:42.297Z,4.40
2023-02-19T13:36:15.752Z,2.80
2023-02-19T13:38:46.565Z,3.95
2023-02-19T13:41:28.047Z,3.85
2023-02-19T13:43:59.554Z,2.00
2023-02-19T13:46:38.700Z,2.03
2023-02-19T13:49:44.573Z,1.85
2023-02-19T13:52:38.304Z,10.88
2023-02-19T13:55:44.219Z,4.68
2023-02-19T13:58:52.122Z,3.83
2023-02-19T14:01:21.041Z,5.50
2023-02-19T14:03:54.820Z,4.95
2023-02-19T14:06:23.062Z,2.85
2023-02-19T14:08:57.212Z,4.75
2023-02-19T14:12:05.368Z,8.23
2023-02-19T14:14:36.880Z,3.15
2023-02-19T14:17:26.768Z,2.50
2023-02-19T14:20:04.450Z,3.70
2023-02-19T14:23:01.867Z,2.45
2023-02-19T14:25:38.293Z,4.05
2023-02-19T14:28:15.881Z,4.15
2023-02-19T14:30:50.351Z,3.63
2023-02-19T14:33:22.579Z,4.50
2023-02-19T14:35:55.622Z,3.95
2023-02-19T14:38:27.478Z,5.57
2023-02-19T14:40:58.439Z,3.42
2023-02-19T14:43:29.297Z,2.28
2023-02-19T14:46:00.298Z,4.00
2023-02-19T14:48:33.931Z,2.70
2023-02-19T14:51:06.725Z,2.10
2023-02-19T14:53:40.610Z,4.88
2023-02-19T14:56:22.062Z,5.63
2023-02-19T14:59:23.205Z,5.97
2023-02-19T15:01:56.176Z,3.35
2023-02-19T15:04:26.074Z,3.83
2023-02-19T15:06:57.127Z,3.97
2023-02-19T15:09:32.420Z,4.60
2023-02-19T15:12:04.424Z,6.00
2023-02-19T15:14:34.757Z,8.18
2023-02-19T15:17:06.567Z,4.40
2023-02-19T15:19:39.697Z,2.25
2023-02-19T15:22:08.997Z,6.80
2023-02-19T15:24:37.749Z,2.95
2023-02-19T15:27:07.755Z,4.07
2023-02-19T15:29:35.669Z,1.60
2023-02-19T15:32:03.848Z,5.10
2023-02-19T15:34:33.760Z,3.50
2023-02-19T15:37:05.870Z,3.67
2023-02-19T15:39:37.190Z,3.28
2023-02-19T15:42:09.590Z,5.70
2023-02-19T15:44:50.720Z,5.10
2023-02-19T15:47:29.356Z,4.60
2023-02-19T15:50:02.481Z,4.38
2023-02-19T15:52:38.500Z,2.92
2023-02-19T15:55:20.809Z,8.60
2023-02-19T15:57:56.366Z,3.30
2023-02-19T16:00:30.840Z,4.70
2023-02-19T16:03:00.098Z,11.95
2023-02-19T16:05:31.008Z,3.00
2023-02-19T16:08:18.022Z,8.60
2023-02-19T16:10:57.373Z,9.65
2023-02-19T16:13:29.386Z,7.15
2023-02-19T16:16:02.430Z,4.70
2023-02-19T16:18:32.031Z,4.47
2023-02-19T16:21:00.681Z,5.47
2023-02-19T16:23:29.304Z,6.15
2023-02-19T16:26:02.355Z,4.30
2023-02-19T16:28:39.461Z,9.02
2023-02-19T16:31:10.370Z,4.45
2023-02-19T16:33:41.984Z,5.75
2023-02-19T16:36:41.847Z,4.80
2023-02-19T16:39:18.708Z,7.05
2023-02-19T16:42:20.958Z,7.18
2023-02-19T16:44:51.847Z,11.30
2023-02-19T16:47:34.746Z,17.33
2023-02-19T16:50:08.959Z,5.95
2023-02-19T16:52:39.299Z,13.85
2023-02-19T16:55:14.733Z,9.30
2023-02-19T16:57:43.203Z,9.05
2023-02-19T17:00:17.970Z,16.27
2023-02-19T17:02:48.210Z,6.60
2023-02-19T17:05:17.346Z,9.40
2023-02-19T17:07:45.731Z,10.25
2023-02-19T17:10:17.171Z,7.53
2023-02-19T17:12:45.254Z,8.75
2023-02-19T17:15:14.954Z,8.00
2023-02-19T17:17:43.790Z,4.88
2023-02-19T17:20:22.794Z,5.75
2023-02-19T17:22:51.745Z,10.25
2023-02-19T17:25:20.450Z,10.70
2023-02-19T17:27:49.074Z,4.72
2023-02-19T17:30:21.907Z,6.03
2023-02-19T17:32:50.251Z,9.00
2023-02-19T17:35:18.679Z,8.18
2023-02-19T17:37:55.974Z,7.18
2023-02-19T17:40:33.187Z,5.53
2023-02-19T17:43:02.256Z,6.05
2023-02-19T17:45:34.053Z,6.95
2023-02-19T17:48:02.505Z,5.72
2023-02-19T17:50:35.094Z,5.28
2023-02-19T17:53:04.616Z,8.85
2023-02-19T17:55:33.649Z,5.25
2023-02-19T17:58:02.658Z,6.40
2023-02-19T18:00:33.178Z,6.43
2023-02-19T18:03:01.470Z,7.18
2023-02-19T18:05:29.658Z,8.20
2023-02-19T18:07:58.120Z,12.52
2023-02-19T18:10:26.582Z,11.13
2023-02-19T18:12:55.086Z,11.32
2023-02-19T18:15:26.310Z,8.77
2023-02-19T18:17:57.565Z,11.10
2023-02-19T18:20:28.315Z,9.95
2023-02-19T18:22:57.711Z,6.00
2023-02-19T18:25:26.438Z,4.07
2023-02-19T18:27:55.306Z,4.55
2023-02-19T18:30:24.464Z,15.13
2023-02-19T18:32:53.317Z,8.07
2023-02-19T18:35:23.175Z,8.32
2023-02-19T18:37:53.234Z,5.40
2023-02-19T18:40:21.710Z,8.18
2023-02-19T18:42:50.437Z,12.35
2023-02-19T18:45:19.145Z,6.13
2023-02-19T18:47:48.699Z,9.60
2023-02-19T18:50:18.107Z,5.43
2023-02-19T18:52:48.048Z,10.23
2023-02-19T18:55:16.464Z,7.47
2023-02-19T18:57:45.347Z,6.35
2023-02-19T19:00:18.830Z,7.82
2023-02-19T19:02:50.568Z,7.78
2023-02-19T19:05:23.147Z,9.90
2023-02-19T19:07:54.464Z,6.40
2023-02-19T19:10:23.930Z,7.57
2023-02-19T19:12:52.318Z,8.75
2023-02-19T19:15:21.580Z,9.02
2023-02-19T19:17:49.642Z,9.30
2023-02-19T19:20:20.728Z,11.77
2023-02-19T19:22:50.711Z,10.50
2023-02-19T19:25:21.199Z,4.95
2023-02-19T19:27:50.899Z,6.75
2023-02-19T19:30:20.885Z,6.13
2023-02-19T19:32:49.879Z,6.75
2023-02-19T19:35:19.012Z,5.53
2023-02-19T19:37:47.545Z,6.00
2023-02-19T19:40:17.653Z,13.50
2023-02-19T19:42:47.875Z,4.85
2023-02-19T19:45:16.831Z,7.70
2023-02-19T19:47:45.339Z,5.70
2023-02-19T19:50:14.639Z,6.88
2023-02-19T19:52:43.078Z,7.78
2023-02-19T19:55:11.660Z,5.00
2023-02-19T19:57:41.011Z,11.77
2023-02-19T20:00:16.448Z,11.90
2023-02-19T20:02:44.968Z,9.57
2023-02-19T20:05:14.139Z,9.88
2023-02-19T20:07:42.600Z,7.68
2023-02-19T20:10:13.298Z,11.63
2023-02-19T20:12:41.812Z,8.77
2023-02-19T20:15:12.458Z,8.82
2023-02-19T20:17:40.899Z,12.75
2023-02-19T20:20:10.536Z,10.18
2023-02-19T20:22:39.679Z,6.95
2023-02-19T20:25:08.143Z,8.00
2023-02-19T20:27:36.502Z,7.22
2023-02-19T20:30:05.984Z,10.43
2023-02-19T20:32:35.443Z,8.57
2023-02-19T20:35:03.453Z,4.90
2023-02-19T20:37:31.572Z,13.40
2023-02-19T20:40:00.318Z,11.75
2023-02-19T20:42:28.540Z,6.88
2023-02-19T20:44:57.040Z,8.20
2023-02-19T20:47:25.186Z,10.20
2023-02-19T20:49:54.532Z,11.20
2023-02-19T20:52:24.786Z,14.40
2023-02-19T20:54:55.547Z,7.32
2023-02-19T20:57:24.389Z,8.18
2023-02-19T20:59:52.335Z,8.98
2023-02-19T21:02:22.323Z,5.57
2023-02-19T21:04:50.913Z,6.13
2023-02-19T21:07:20.462Z,7.13
2023-02-19T21:09:49.045Z,6.05
2023-02-19T21:12:17.778Z,7.32
2023-02-19T21:14:45.945Z,6.22
2023-02-19T21:17:14.658Z,5.45
2023-02-19T21:19:42.905Z,9.40
2023-02-19T21:22:11.300Z,8.95
2023-02-19T21:24:41.002Z,6.32
2023-02-19T21:27:09.646Z,6.60
2023-02-19T21:29:37.717Z,7.60
2023-02-19T21:32:06.283Z,7.88
2023-02-19T21:34:34.714Z,7.40
2023-02-19T21:37:02.838Z,5.97
2023-02-19T21:39:32.368Z,7.25
2023-02-19T21:42:02.804Z,7.35
2023-02-19T21:44:31.225Z,7.82
2023-02-19T21:46:59.504Z,9.88
2023-02-19T21:49:27.607Z,8.02
2023-02-19T21:51:55.886Z,11.23
2023-02-19T21:54:25.836Z,10.18
2023-02-19T21:56:54.842Z,12.95
2023-02-19T21:59:24.850Z,8.00
2023-02-19T22:01:53.093Z,9.32
2023-02-19T22:04:24.571Z,8.55
2023-02-19T22:06:56.631Z,10.32
2023-02-19T22:09:24.872Z,9.98
2023-02-19T22:11:53.118Z,13.98
2023-02-19T22:14:21.713Z,10.63
2023-02-19T22:16:51.804Z,9.93
2023-02-19T22:19:20.381Z,13.88
2023-02-19T22:21:49.066Z,12.55
2023-02-19T22:24:19.467Z,8.15
2023-02-19T22:26:50.771Z,11.82
2023-02-19T22:29:19.262Z,9.75
2023-02-19T22:31:47.930Z,10.52
2023-02-19T22:34:18.347Z,12.02
2023-02-19T22:36:46.632Z,8.45
2023-02-19T22:39:18.949Z,7.50
2023-02-19T22:41:46.891Z,9.73
2023-02-19T22:44:20.069Z,10.15
2023-02-19T22:46:50.293Z,7.93
2023-02-19T22:49:21.016Z,12.20
2023-02-19T22:51:56.301Z,8.15
2023-02-19T22:54:27.201Z,8.35
2023-02-19T22:56:55.707Z,12.93
2023-02-19T22:59:24.563Z,9.20
2023-02-19T23:01:53.508Z,7.68
2023-02-19T23:04:24.403Z,13.65
2023-02-19T23:06:53.060Z,11.73
2023-02-19T23:09:24.236Z,6.15
2023-02-19T23:11:53.339Z,6.90
2023-02-19T23:14:23.195Z,9.20
2023-02-19T23:16:51.164Z,12.80
2023-02-19T23:19:19.649Z,9.35
2023-02-19T23:21:49.760Z,12.00
2023-02-19T23:24:18.453Z,11.18
2023-02-19T23:26:47.682Z,9.00
2023-02-19T23:29:17.490Z,10.30
2023-02-19T23:31:46.100Z,10.05
2023-02-19T23:34:14.951Z,8.45
2023-02-19T23:36:43.464Z,11.00
2023-02-19T23:39:14.673Z,8.88
2023-02-19T23:41:47.900Z,7.28
2023-02-19T23:44:16.899Z,7.35
2023-02-19T23:46:46.686Z,12.85
2023-02-19T23:49:15.368Z,11.48
2023-02-19T23:51:43.468Z,14.13
2023-02-19T23:54:13.678Z,11.52
2023-02-19T23:56:42.302Z,17.95
2023-02-19T23:59:10.805Z,8.57
